Time;durP1;ratioP1;P1;durP2;ratioP2;P2;SDS_P1;SDS_P2;PMS_P1;PMS_P2;Temp;Humidity;BMP_temperature;BMP_pressure;BME280_temperature;BME280_humidity;BME280_pressure;Samples;Min_cycle;Max_cycle;Signal;HPM_P1;HPM_P2
2021/03/02 00:01:43;;;;;;;72.40;31.63;;;3.40;99.90;;;;;;4160699;28;20040;-77
2021/03/02 00:03:45;;;;;;;68.72;29.98;;;3.40;99.90;;;;;;4176940;28;20025;-76
2021/03/02 00:05:47;;;;;;;67.65;31.42;;;3.40;99.90;;;;;;4181040;28;20040;-76
2021/03/02 00:07:48;;;;;;;66.35;31.02;;;3.40;99.90;;;;;;4159669;28;20029;-76
2021/03/02 00:09:49;;;;;;;71.40;33.85;;;3.40;99.90;;;;;;4164230;28;20100;-77
2021/03/02 00:11:51;;;;;;;76.55;32.35;;;3.30;99.90;;;;;;4167851;28;20034;-76
2021/03/02 00:13:52;;;;;;;67.37;31.50;;;3.40;99.90;;;;;;4165993;28;20025;-76
2021/03/02 00:15:53;;;;;;;65.97;29.92;;;3.30;99.90;;;;;;4152930;28;20312;-76
2021/03/02 00:17:56;;;;;;;69.28;31.83;;;3.30;99.90;;;;;;4190173;28;20037;-77
2021/03/02 00:20:09;;;;;;;72.05;30.02;;;3.30;99.90;;;;;;4158381;28;20034;-76
2021/03/02 00:22:25;;;;;;;71.45;31.52;;;3.20;99.90;;;;;;4166012;28;20106;-76
2021/03/02 00:24:32;;;;;;;71.15;33.33;;;3.10;99.90;;;;;;4169549;28;20043;-76
2021/03/02 00:26:41;;;;;;;75.68;32.05;;;3.10;99.90;;;;;;4181334;28;20040;-76
2021/03/02 00:28:43;;;;;;;73.20;32.55;;;3.10;99.90;;;;;;4168822;28;20037;-76
2021/03/02 00:30:48;;;;;;;73.80;33.08;;;3.00;99.90;;;;;;4179146;28;20064;-76
2021/03/02 00:32:50;;;;;;;71.93;31.73;;;2.90;99.90;;;;;;4180764;28;20045;-76
2021/03/02 00:34:51;;;;;;;78.45;31.77;;;2.90;99.90;;;;;;4180939;28;20041;-76
2021/03/02 00:36:52;;;;;;;78.68;34.78;;;2.90;99.90;;;;;;4187688;28;20029;-76
2021/03/02 00:38:53;;;;;;;71.43;31.23;;;2.80;99.90;;;;;;4164502;28;20049;-76
2021/03/02 00:40:54;;;;;;;66.60;33.05;;;2.80;99.90;;;;;;4178610;28;20037;-76
2021/03/02 00:42:54;;;;;;;75.30;30.10;;;2.70;99.90;;;;;;4180635;28;20037;-76
2021/03/02 00:44:55;;;;;;;72.32;31.27;;;2.60;99.90;;;;;;4180669;28;20037;-76
2021/03/02 00:46:56;;;;;;;77.82;32.75;;;2.50;99.90;;;;;;4188627;28;20048;-76
2021/03/02 00:48:57;;;;;;;84.80;34.35;;;2.50;99.90;;;;;;4165349;28;20034;-76
2021/03/02 00:51:00;;;;;;;76.60;31.90;;;2.60;99.90;;;;;;4165194;28;20128;-76
2021/03/02 00:53:01;;;;;;;77.95;32.38;;;2.60;99.90;;;;;;4163711;28;20497;-76
2021/03/02 00:55:06;;;;;;;76.47;33.25;;;2.50;99.90;;;;;;4176130;28;20029;-76
2021/03/02 00:57:07;;;;;;;72.22;31.67;;;2.50;99.90;;;;;;4155259;28;20041;-76
2021/03/02 00:59:07;;;;;;;82.00;32.13;;;2.40;99.90;;;;;;4179500;28;20750;-76
2021/03/02 01:01:08;;;;;;;72.25;29.92;;;2.30;99.90;;;;;;4180076;28;20490;-76
2021/03/02 01:03:09;;;;;;;78.47;31.48;;;2.30;99.90;;;;;;4180151;28;20561;-76
2021/03/02 01:05:11;;;;;;;84.80;31.98;;;2.20;99.90;;;;;;4176131;28;20527;-76
2021/03/02 01:07:11;;;;;;;78.43;31.77;;;2.20;99.90;;;;;;4170912;28;20040;-76
2021/03/02 01:09:13;;;;;;;84.80;30.02;;;2.10;99.90;;;;;;4181646;28;20437;-76
2021/03/02 01:11:14;;;;;;;84.45;31.25;;;2.00;99.90;;;;;;4177305;28;20048;-77
2021/03/02 01:13:15;;;;;;;83.65;34.17;;;1.90;99.90;;;;;;4170345;28;20037;-76
2021/03/02 01:15:16;;;;;;;78.88;32.35;;;2.00;99.90;;;;;;4180210;28;20044;-76
2021/03/02 01:17:16;;;;;;;76.38;31.27;;;2.00;99.90;;;;;;4162852;28;20052;-76
2021/03/02 01:19:17;;;;;;;73.20;29.58;;;1.90;99.90;;;;;;4179701;28;20033;-76
2021/03/02 01:21:18;;;;;;;79.22;30.15;;;1.80;99.90;;;;;;4179592;28;20452;-76
2021/03/02 01:23:20;;;;;;;72.07;29.00;;;1.60;99.90;;;;;;4170186;28;20044;-77
2021/03/02 01:25:21;;;;;;;86.95;32.05;;;1.60;99.90;;;;;;4163716;28;20120;-77
2021/03/02 01:27:22;;;;;;;82.25;31.48;;;1.60;99.90;;;;;;4175885;28;20528;-77
2021/03/02 01:29:23;;;;;;;89.85;32.83;;;1.60;99.90;;;;;;4179167;28;20036;-76
2021/03/02 01:31:25;;;;;;;86.68;31.20;;;1.50;99.90;;;;;;4169015;28;20099;-76
2021/03/02 01:33:25;;;;;;;90.63;33.25;;;1.40;99.90;;;;;;4171090;28;20876;-76
2021/03/02 01:35:27;;;;;;;84.00;30.15;;;1.40;99.90;;;;;;4175022;28;20482;-76
2021/03/02 01:37:27;;;;;;;75.93;29.30;;;1.30;99.90;;;;;;4163292;28;20041;-75
2021/03/02 01:39:29;;;;;;;83.38;28.70;;;1.30;99.90;;;;;;4159928;28;20045;-76
2021/03/02 01:41:30;;;;;;;82.15;29.80;;;1.30;99.90;;;;;;4165825;28;20029;-77
2021/03/02 01:43:31;;;;;;;95.05;31.60;;;1.20;99.90;;;;;;4156113;28;20038;-76
2021/03/02 01:45:32;;;;;;;81.70;30.40;;;1.10;99.90;;;;;;4170403;28;20045;-76
2021/03/02 01:47:33;;;;;;;92.55;33.25;;;1.20;99.90;;;;;;4161304;28;20076;-76
2021/03/02 01:49:34;;;;;;;92.47;32.83;;;1.10;99.90;;;;;;4166444;28;20041;-76
2021/03/02 01:51:35;;;;;;;92.63;32.10;;;1.10;99.90;;;;;;4168833;28;20033;-76
2021/03/02 01:53:37;;;;;;;90.63;34.40;;;1.20;99.90;;;;;;4179441;28;20119;-76
2021/03/02 01:55:38;;;;;;;103.38;35.83;;;1.40;99.90;;;;;;4179400;28;20041;-75
2021/03/02 01:57:38;;;;;;;107.50;39.72;;;1.50;99.90;;;;;;4182453;28;20176;-75
2021/03/02 01:59:39;;;;;;;98.28;34.63;;;1.70;99.90;;;;;;4179136;28;20560;-75
2021/03/02 02:01:41;;;;;;;100.78;35.42;;;1.70;99.90;;;;;;4162596;28;20029;-76
2021/03/02 02:03:56;;;;;;;107.13;35.58;;;1.60;99.90;;;;;;4179513;28;20089;-76
2021/03/02 02:06:10;;;;;;;106.93;36.13;;;1.50;99.90;;;;;;4194326;28;20028;-76
2021/03/02 02:08:15;;;;;;;109.68;37.55;;;1.30;99.90;;;;;;4162546;28;20429;-75
2021/03/02 02:10:50;;;;;;;110.88;36.67;;;1.30;99.90;;;;;;4161962;28;20388;-76
2021/03/02 02:12:54;;;;;;;;;;;1.30;99.90;;;;;;4179685;28;20463;-76
2021/03/02 02:14:59;;;;;;;106.78;34.30;;;1.40;99.90;;;;;;4173231;28;19913;-76
2021/03/02 02:17:08;;;;;;;99.63;34.15;;;1.30;99.90;;;;;;4162652;28;20041;-75
2021/03/02 02:19:31;;;;;;;103.57;37.35;;;1.30;99.90;;;;;;4162132;28;20559;-75
2021/03/02 02:22:03;;;;;;;112.68;37.63;;;1.30;99.90;;;;;;4163680;28;20432;-75
2021/03/02 02:24:23;;;;;;;115.72;36.72;;;1.30;99.90;;;;;;4178393;28;20083;-75
2021/03/02 02:26:51;;;;;;;101.72;34.17;;;1.10;99.90;;;;;;4169895;28;20053;-76
2021/03/02 02:28:54;;;;;;;101.05;34.33;;;1.00;99.90;;;;;;4165916;28;20528;-76
2021/03/02 02:30:57;;;;;;;101.13;34.00;;;0.90;99.90;;;;;;4178577;28;20037;-75
2021/03/02 02:33:00;;;;;;;106.65;35.17;;;0.80;99.90;;;;;;4178836;28;20291;-75
2021/03/02 02:35:04;;;;;;;107.15;35.35;;;0.80;99.90;;;;;;4178539;28;20033;-75
2021/03/02 02:37:05;;;;;;;114.47;36.47;;;0.70;99.90;;;;;;4195228;28;20032;-76
2021/03/02 02:39:07;;;;;;;114.43;36.80;;;0.70;99.90;;;;;;4195164;28;20064;-75
2021/03/02 02:41:09;;;;;;;102.40;33.67;;;0.60;99.90;;;;;;4176723;28;20029;-76
2021/03/02 02:43:10;;;;;;;104.13;34.63;;;0.50;99.90;;;;;;4167363;28;20029;-76
2021/03/02 02:45:12;;;;;;;107.28;35.20;;;0.50;99.90;;;;;;4161828;28;20056;-76
2021/03/02 02:47:15;;;;;;;113.60;36.15;;;0.50;99.90;;;;;;4168409;28;20060;-76
2021/03/02 02:49:17;;;;;;;118.45;37.60;;;0.50;99.90;;;;;;4175827;28;20111;-76
2021/03/02 02:51:19;;;;;;;111.90;36.72;;;0.60;99.90;;;;;;4178238;28;20029;-76
2021/03/02 02:53:20;;;;;;;117.80;38.72;;;0.60;99.90;;;;;;4174091;28;20111;-76
2021/03/02 02:55:35;;;;;;;121.65;38.00;;;0.60;99.90;;;;;;4169463;28;20056;-76
2021/03/02 02:57:42;;;;;;;116.47;36.72;;;0.60;99.90;;;;;;4166579;28;20037;-76
2021/03/02 02:59:46;;;;;;;112.80;37.97;;;0.60;99.90;;;;;;4160591;28;20052;-76
2021/03/02 03:02:05;;;;;;;124.45;39.80;;;0.60;99.90;;;;;;4190594;28;20467;-76
2021/03/02 03:04:12;;;;;;;121.38;35.38;;;0.70;99.90;;;;;;4171303;28;20539;-76
2021/03/02 03:06:18;;;;;;;119.93;37.80;;;0.60;99.90;;;;;;4166982;28;20037;-76
2021/03/02 03:08:23;;;;;;;109.03;34.10;;;0.50;99.90;;;;;;4177963;28;20041;-76
2021/03/02 03:10:27;;;;;;;112.15;36.40;;;0.40;99.90;;;;;;4178280;28;20060;-77
2021/03/02 03:12:30;;;;;;;120.30;37.03;;;0.30;99.90;;;;;;4178287;28;20104;-76
2021/03/02 03:14:38;;;;;;;117.03;39.97;;;0.30;99.90;;;;;;4172597;28;20037;-76
2021/03/02 03:16:44;;;;;;;118.85;40.33;;;0.40;99.90;;;;;;4172607;28;20469;-76
2021/03/02 03:18:53;;;;;;;125.03;37.78;;;0.40;99.90;;;;;;4161778;28;20061;-76
2021/03/02 03:20:59;;;;;;;105.40;36.85;;;0.40;99.90;;;;;;4161754;28;20033;-76
2021/03/02 03:23:00;;;;;;;106.45;34.53;;;0.30;99.90;;;;;;4177904;28;20503;-77
2021/03/02 03:25:04;;;;;;;108.22;33.55;;;0.30;99.90;;;;;;4168905;28;20043;-74
2021/03/02 03:27:05;;;;;;;102.78;32.50;;;0.20;99.90;;;;;;4174085;28;20033;-74
2021/03/02 03:29:09;;;;;;;106.22;33.25;;;0.10;99.90;;;;;;4178168;28;20033;-76
2021/03/02 03:31:12;;;;;;;109.68;33.00;;;0.00;99.90;;;;;;4178355;28;20021;-76
2021/03/02 03:33:15;;;;;;;101.47;31.33;;;-0.10;99.90;;;;;;4194883;28;20036;-76
2021/03/02 03:35:17;;;;;;;;;;;0.00;99.90;;;;;;4178518;28;20037;-76
2021/03/02 03:37:18;;;;;;;106.03;32.35;;;-0.10;99.90;;;;;;4165405;28;19913;-76
2021/03/02 03:39:19;;;;;;;100.18;35.17;;;0.00;99.90;;;;;;4163015;28;20041;-76
2021/03/02 03:41:21;;;;;;;120.05;33.47;;;0.00;99.90;;;;;;4149210;28;20587;-76
2021/03/02 03:43:21;;;;;;;130.35;34.22;;;-0.10;99.90;;;;;;4188237;28;20047;-76
2021/03/02 03:45:22;;;;;;;107.40;35.00;;;-0.10;99.90;;;;;;4157769;28;20125;-76
2021/03/02 03:47:23;;;;;;;117.88;38.65;;;-0.10;99.90;;;;;;4167528;28;20063;-76
2021/03/02 03:49:24;;;;;;;117.70;36.60;;;0.10;99.90;;;;;;4167802;28;20037;-76
2021/03/02 03:51:27;;;;;;;122.70;38.83;;;0.20;99.90;;;;;;4177716;28;20527;-76
2021/03/02 03:53:33;;;;;;;130.15;39.05;;;0.30;99.90;;;;;;4159994;28;20532;-76
2021/03/02 03:55:40;;;;;;;131.63;40.25;;;0.40;99.90;;;;;;4181027;28;20036;-76
2021/03/02 03:57:43;;;;;;;129.20;40.00;;;0.40;99.90;;;;;;4175006;28;20119;-76
2021/03/02 03:59:45;;;;;;;134.93;41.75;;;0.30;99.90;;;;;;4161456;28;20054;-76
2021/03/02 04:01:52;;;;;;;120.88;39.55;;;0.20;99.90;;;;;;4161679;28;20044;-76
2021/03/02 04:03:54;;;;;;;132.00;39.70;;;0.20;99.90;;;;;;4177824;28;20128;-76
2021/03/02 04:05:55;;;;;;;139.95;39.60;;;0.10;99.90;;;;;;4177774;28;20041;-76
2021/03/02 04:07:57;;;;;;;132.23;40.80;;;0.20;99.90;;;;;;4161556;28;20052;-76
2021/03/02 04:09:58;;;;;;;137.23;42.88;;;0.20;99.90;;;;;;4176453;28;20029;-76
2021/03/02 04:11:59;;;;;;;138.50;40.05;;;0.20;99.90;;;;;;4165447;28;20111;-76
2021/03/02 04:14:00;;;;;;;121.97;38.45;;;0.20;99.90;;;;;;4178253;28;20055;-76
2021/03/02 04:16:01;;;;;;;132.65;43.75;;;0.20;99.90;;;;;;4190502;28;20029;-76
2021/03/02 04:18:01;;;;;;;137.65;39.85;;;0.20;99.90;;;;;;4178562;28;20049;-76
2021/03/02 04:20:06;;;;;;;134.48;38.80;;;0.10;99.90;;;;;;4179211;28;20021;-76
2021/03/02 04:22:06;;;;;;;132.85;43.22;;;0.10;99.90;;;;;;4166422;28;20041;-75
2021/03/02 04:24:08;;;;;;;138.75;40.88;;;0.20;99.90;;;;;;4175058;28;20037;-75
2021/03/02 04:26:09;;;;;;;139.18;41.60;;;0.20;99.90;;;;;;4177646;28;20029;-76
2021/03/02 04:28:10;;;;;;;128.70;40.63;;;0.10;99.90;;;;;;4161195;28;20030;-76
2021/03/02 04:30:11;;;;;;;131.77;40.25;;;0.10;99.90;;;;;;4179066;28;20021;-75
2021/03/02 04:32:12;;;;;;;143.23;43.17;;;0.10;99.90;;;;;;4179239;28;20029;-76
2021/03/02 04:34:13;;;;;;;139.60;41.25;;;0.10;99.90;;;;;;4166557;28;20029;-76
2021/03/02 04:36:14;;;;;;;130.27;40.35;;;0.00;99.90;;;;;;4180303;28;20025;-76
2021/03/02 04:38:14;;;;;;;131.75;39.80;;;-0.10;99.90;;;;;;4193399;28;20021;-76
2021/03/02 04:40:16;;;;;;;120.65;38.00;;;-0.20;99.90;;;;;;4163826;28;20025;-76
2021/03/02 04:42:17;;;;;;;136.40;39.25;;;-0.30;99.90;;;;;;4164130;28;20068;-74
2021/03/02 04:44:17;;;;;;;123.85;37.60;;;-0.40;99.90;;;;;;4180691;28;20037;-75
2021/03/02 04:46:21;;;;;;;117.45;37.75;;;-0.40;99.90;;;;;;4181797;28;20075;-76
2021/03/02 04:48:22;;;;;;;152.00;40.90;;;-0.40;99.90;;;;;;4167097;28;20408;-76
2021/03/02 04:50:23;;;;;;;142.48;41.53;;;-0.30;99.90;;;;;;4191889;28;20033;-76
2021/03/02 04:52:23;;;;;;;137.35;40.78;;;-0.30;99.90;;;;;;4181794;28;20033;-76
2021/03/02 04:54:25;;;;;;;139.98;39.40;;;-0.40;99.90;;;;;;4181774;28;20029;-75
2021/03/02 04:56:26;;;;;;;120.47;35.53;;;-0.30;99.90;;;;;;4163960;28;20026;-75
2021/03/02 04:58:27;;;;;;;119.70;35.85;;;-0.40;99.90;;;;;;4163421;28;20045;-75
2021/03/02 05:00:28;;;;;;;121.10;36.58;;;-0.40;99.90;;;;;;4181466;28;20037;-76
2021/03/02 05:02:29;;;;;;;142.52;37.55;;;-0.50;99.90;;;;;;4180480;28;20029;-76
2021/03/02 05:04:29;;;;;;;117.28;36.63;;;-0.50;99.90;;;;;;4188090;28;20067;-76
2021/03/02 05:06:30;;;;;;;129.80;36.45;;;-0.50;99.90;;;;;;4180284;28;20036;-76
2021/03/02 05:08:31;;;;;;;128.45;38.00;;;-0.50;99.90;;;;;;4180681;28;20029;-76
2021/03/02 05:10:32;;;;;;;127.68;39.92;;;-0.50;99.90;;;;;;4181335;28;20483;-74
2021/03/02 05:12:33;;;;;;;139.48;40.20;;;-0.50;99.90;;;;;;4180662;28;20544;-74
2021/03/02 05:14:34;;;;;;;127.35;39.20;;;-0.50;99.90;;;;;;4172710;28;20056;-74
2021/03/02 05:16:35;;;;;;;120.22;38.60;;;-0.60;99.90;;;;;;4174947;28;20464;-74
2021/03/02 05:18:36;;;;;;;122.40;38.03;;;-0.60;99.90;;;;;;4180436;28;20033;-75
2021/03/02 05:20:36;;;;;;;132.57;34.67;;;-0.60;99.90;;;;;;4179751;28;20056;-75
2021/03/02 05:22:37;;;;;;;114.15;34.47;;;-0.60;99.90;;;;;;4181495;28;20067;-76
2021/03/02 05:24:38;;;;;;;116.45;34.67;;;-0.60;99.90;;;;;;4181294;28;20099;-75
2021/03/02 05:26:39;;;;;;;123.35;32.95;;;-0.70;99.90;;;;;;4179806;28;20033;-76
2021/03/02 05:28:40;;;;;;;119.72;31.98;;;-0.80;99.90;;;;;;4180298;28;20044;-76
2021/03/02 05:30:41;;;;;;;132.45;35.85;;;-0.80;99.90;;;;;;4179975;28;20033;-76
2021/03/02 05:32:41;;;;;;;136.80;37.25;;;-0.90;99.90;;;;;;4180330;28;20036;-76
2021/03/02 05:34:42;;;;;;;141.75;37.90;;;-0.80;99.90;;;;;;4181399;28;20033;-75
2021/03/02 05:36:44;;;;;;;128.00;38.95;;;-0.80;99.90;;;;;;4179430;28;20039;-76
2021/03/02 05:38:44;;;;;;;131.35;35.35;;;-0.80;99.90;;;;;;4179497;28;20128;-76
2021/03/02 05:40:45;;;;;;;116.50;35.65;;;-0.80;99.90;;;;;;4179344;28;20122;-76
2021/03/02 05:42:46;;;;;;;119.00;36.15;;;-0.70;99.90;;;;;;4177184;28;20128;-75
2021/03/02 05:44:47;;;;;;;120.85;36.83;;;-0.70;99.90;;;;;;4165453;28;20041;-76
2021/03/02 05:46:48;;;;;;;118.32;36.55;;;-0.70;99.90;;;;;;4165852;28;20034;-75
2021/03/02 05:48:49;;;;;;;133.45;38.22;;;-0.70;99.90;;;;;;4174029;28;20450;-75
2021/03/02 05:50:53;;;;;;;142.70;40.75;;;-0.70;99.90;;;;;;4167437;28;20037;-76
2021/03/02 05:53:00;;;;;;;145.07;41.83;;;-0.80;99.90;;;;;;4178886;28;20036;-75
2021/03/02 05:55:02;;;;;;;128.73;38.92;;;-0.80;99.90;;;;;;4194767;28;20032;-76
2021/03/02 05:57:03;;;;;;;126.68;39.53;;;-0.80;99.90;;;;;;4194952;28;20039;-76
2021/03/02 05:59:04;;;;;;;144.77;39.95;;;-0.70;99.90;;;;;;4168227;28;20050;-76
2021/03/02 06:01:05;;;;;;;159.07;42.55;;;-0.50;99.90;;;;;;4172518;28;20041;-76
2021/03/02 06:03:07;;;;;;;153.95;43.97;;;-0.50;99.90;;;;;;4179239;28;20508;-76
2021/03/02 06:05:09;;;;;;;148.05;40.72;;;-0.40;99.90;;;;;;4179184;28;20052;-76
2021/03/02 06:07:09;;;;;;;161.35;42.60;;;-0.40;99.90;;;;;;4176327;28;20022;-76
2021/03/02 06:09:10;;;;;;;151.23;42.83;;;-0.50;99.90;;;;;;4177252;28;20059;-76
2021/03/02 06:11:34;;;;;;;135.43;39.22;;;-0.60;99.90;;;;;;4176507;28;20057;-77
2021/03/02 06:13:35;;;;;;;124.03;38.78;;;-0.70;99.90;;;;;;4178784;28;20121;-74
2021/03/02 06:15:55;;;;;;;131.63;40.30;;;-0.70;99.90;;;;;;4176505;28;20037;-75
2021/03/02 06:18:16;;;;;;;132.90;39.70;;;-0.80;99.90;;;;;;4155088;28;20052;-75
2021/03/02 06:20:23;;;;;;;119.68;35.85;;;-0.90;99.90;;;;;;4194134;28;20082;-76
2021/03/02 06:22:40;;;;;;;129.02;37.88;;;-0.90;99.90;;;;;;4164082;28;20052;-76
2021/03/02 06:24:41;;;;;;;143.07;40.33;;;-0.90;99.90;;;;;;4171450;28;20049;-74
2021/03/02 06:26:42;;;;;;;149.93;41.47;;;-0.90;99.90;;;;;;4170765;28;20132;-75
2021/03/02 06:28:45;;;;;;;130.75;41.88;;;-0.90;99.90;;;;;;4175227;28;20123;-75
2021/03/02 06:30:46;;;;;;;135.32;39.97;;;-0.80;99.90;;;;;;4164185;28;20146;-75
2021/03/02 06:32:51;;;;;;;130.38;38.28;;;-0.80;99.90;;;;;;4190235;28;20044;-75
2021/03/02 06:34:52;;;;;;;128.80;35.63;;;-0.80;99.90;;;;;;4169992;28;20502;-75
2021/03/02 06:36:53;;;;;;;127.38;34.47;;;-0.90;99.90;;;;;;4178415;28;20057;-75
2021/03/02 06:38:54;;;;;;;125.63;38.30;;;-0.90;99.90;;;;;;4179759;28;20041;-75
2021/03/02 06:40:55;;;;;;;133.85;38.28;;;-0.90;99.90;;;;;;4148407;28;20042;-75
2021/03/02 06:42:56;;;;;;;115.72;38.60;;;-0.80;99.90;;;;;;4166547;28;20037;-75
2021/03/02 06:45:11;;;;;;;128.57;38.67;;;-0.80;99.90;;;;;;4178336;28;20444;-76
2021/03/02 06:47:13;;;;;;;163.95;45.35;;;-0.70;99.90;;;;;;4184246;28;20033;-75
2021/03/02 06:49:14;;;;;;;121.82;35.80;;;-0.70;99.90;;;;;;4178963;28;20035;-76
2021/03/02 06:51:30;;;;;;;155.15;39.22;;;-0.70;99.90;;;;;;4170233;28;20037;-76
2021/03/02 06:53:30;;;;;;;136.10;38.83;;;-0.70;99.90;;;;;;4189006;28;20480;-76
2021/03/02 06:55:31;;;;;;;124.22;40.00;;;-0.60;99.90;;;;;;4177627;28;20126;-74
2021/03/02 06:57:32;;;;;;;137.15;42.75;;;-0.50;99.90;;;;;;4176629;28;20115;-75
2021/03/02 06:59:33;;;;;;;139.68;42.67;;;-0.40;99.90;;;;;;4177485;28;20377;-75
2021/03/02 07:01:37;;;;;;;135.57;41.42;;;-0.20;99.90;;;;;;4162041;28;20044;-75
2021/03/02 07:03:38;;;;;;;141.48;41.08;;;-0.20;99.90;;;;;;4184029;28;20144;-75
2021/03/02 07:05:47;;;;;;;145.88;44.47;;;-0.10;99.90;;;;;;4175031;28;20038;-75
2021/03/02 07:07:55;;;;;;;147.07;42.53;;;-0.10;99.90;;;;;;4161487;28;21795;-76
2021/03/02 07:09:55;;;;;;;143.30;42.55;;;0.10;99.90;;;;;;4183547;28;20040;-75
2021/03/02 07:11:58;;;;;;;139.23;41.65;;;0.10;99.90;;;;;;4161193;28;20483;-76
2021/03/02 07:14:02;;;;;;;127.95;42.33;;;0.20;99.90;;;;;;4148976;28;20054;-76
2021/03/02 07:16:03;;;;;;;126.13;42.17;;;0.30;99.90;;;;;;4173326;28;20025;-76
2021/03/02 07:18:06;;;;;;;134.32;44.50;;;0.40;99.90;;;;;;4160899;28;20030;-76
2021/03/02 07:20:09;;;;;;;128.77;43.50;;;0.50;99.90;;;;;;4177366;28;20067;-75
2021/03/02 07:22:11;;;;;;;138.80;45.35;;;0.60;99.90;;;;;;4193523;28;20483;-74
2021/03/02 07:24:13;;;;;;;133.52;45.88;;;0.70;99.90;;;;;;4173762;28;20045;-75
2021/03/02 07:26:14;;;;;;;135.00;45.75;;;0.80;99.90;;;;;;4173780;28;20063;-75
2021/03/02 07:28:19;;;;;;;133.60;48.45;;;0.90;99.90;;;;;;4154139;28;20041;-76
2021/03/02 07:30:21;;;;;;;146.85;45.58;;;1.00;99.90;;;;;;4195605;28;20029;-75
2021/03/02 07:32:22;;;;;;;130.82;46.53;;;1.10;99.90;;;;;;4166216;28;20095;-76
2021/03/02 07:34:23;;;;;;;137.75;50.08;;;1.30;99.90;;;;;;4178033;28;20033;-76
2021/03/02 07:36:24;;;;;;;136.75;48.20;;;1.40;99.90;;;;;;4176446;28;20528;-76
2021/03/02 07:38:25;;;;;;;124.22;47.28;;;1.50;99.90;;;;;;4174076;28;20048;-76
2021/03/02 07:40:26;;;;;;;142.32;49.22;;;1.70;99.90;;;;;;4175968;28;20044;-76
2021/03/02 07:42:27;;;;;;;124.10;45.20;;;1.80;99.90;;;;;;4169968;28;20181;-76
2021/03/02 07:45:10;;;;;;;135.02;48.70;;;1.90;99.90;;;;;;4192790;28;20032;-76
2021/03/02 07:47:11;;;;;;;127.43;44.90;;;2.00;99.90;;;;;;4178503;28;20036;-76
2021/03/02 07:49:23;;;;;;;132.48;46.55;;;2.00;99.90;;;;;;4161013;28;20025;-77
2021/03/02 07:51:24;;;;;;;121.95;43.65;;;2.00;99.90;;;;;;4173273;28;20052;-76
2021/03/02 07:53:25;;;;;;;110.55;44.15;;;2.00;99.90;;;;;;4172504;28;20064;-77
2021/03/02 07:55:26;;;;;;;108.15;42.75;;;2.00;99.90;;;;;;4158677;28;20044;-77
2021/03/02 07:57:27;;;;;;;107.00;39.75;;;2.20;99.90;;;;;;4179911;28;20032;-75
2021/03/02 07:59:27;;;;;;;123.72;42.95;;;2.30;99.90;;;;;;4189607;28;20049;-76
2021/03/02 08:01:28;;;;;;;113.47;42.70;;;2.40;99.90;;;;;;4176016;28;20480;-77
2021/03/02 08:03:30;;;;;;;94.57;40.70;;;2.60;99.90;;;;;;4177382;28;20489;-77
2021/03/02 08:05:31;;;;;;;102.07;41.38;;;2.70;99.90;;;;;;4176320;28;20029;-75
2021/03/02 08:07:32;;;;;;;91.47;40.03;;;2.80;99.90;;;;;;4152773;28;20135;-75
2021/03/02 08:09:32;;;;;;;91.85;40.47;;;2.90;99.90;;;;;;4171895;28;20029;-75
2021/03/02 08:11:37;;;;;;;101.10;38.75;;;3.00;99.90;;;;;;4180827;28;20024;-76
2021/03/02 08:13:42;;;;;;;92.22;39.08;;;3.10;99.90;;;;;;4179101;28;20162;-76
2021/03/02 08:15:44;;;;;;;99.07;42.10;;;3.20;99.90;;;;;;4177375;28;20264;-76
2021/03/02 08:17:44;;;;;;;88.03;38.33;;;3.30;99.90;;;;;;4163438;28;20037;-77
2021/03/02 08:20:07;;;;;;;87.25;36.63;;;3.30;99.90;;;;;;4180557;28;20056;-76
2021/03/02 08:22:17;;;;;;;85.53;37.58;;;3.40;99.90;;;;;;4180102;28;20144;-76
2021/03/02 08:24:54;;;;;;;92.28;39.20;;;3.50;99.90;;;;;;4178397;28;20052;-76
2021/03/02 08:26:54;;;;;;;86.15;36.63;;;3.60;99.90;;;;;;4162381;28;20041;-76
2021/03/02 08:29:12;;;;;;;76.68;35.38;;;3.60;99.90;;;;;;4179184;28;20033;-76
2021/03/02 08:31:12;;;;;;;82.10;36.10;;;3.70;99.90;;;;;;4178226;28;20431;-76
2021/03/02 08:33:19;;;;;;;72.22;36.58;;;3.80;99.90;;;;;;4179033;28;20052;-76
2021/03/02 08:35:23;;;;;;;72.40;35.30;;;3.90;99.90;;;;;;4164328;28;20504;-76
2021/03/02 08:37:46;;;;;;;71.72;35.88;;;4.10;99.90;;;;;;4178782;28;20065;-76
2021/03/02 08:39:53;;;;;;;75.68;35.13;;;4.20;99.90;;;;;;4163381;28;20057;-76
2021/03/02 08:41:54;;;;;;;68.97;32.15;;;4.30;99.90;;;;;;4180131;28;20033;-76
2021/03/02 08:43:55;;;;;;;64.88;30.70;;;4.40;99.90;;;;;;4181126;28;20036;-76
2021/03/02 08:46:00;;;;;;;67.45;30.95;;;4.60;99.90;;;;;;4163315;28;20040;-76
2021/03/02 08:48:20;;;;;;;61.67;29.88;;;4.70;99.90;;;;;;4179486;28;20079;-76
2021/03/02 08:50:36;;;;;;;64.07;31.27;;;4.90;99.90;;;;;;4181413;28;20470;-76
2021/03/02 08:52:40;;;;;;;58.78;30.02;;;5.10;99.90;;;;;;4169043;28;20051;-76
2021/03/02 08:54:48;;;;;;;59.80;30.77;;;5.20;99.90;;;;;;4160553;28;20102;-77
2021/03/02 08:57:05;;;;;;;53.33;28.67;;;5.50;99.90;;;;;;4179161;28;20037;-76
2021/03/02 08:59:09;;;;;;;52.17;26.50;;;5.70;99.90;;;;;;4177754;28;20471;-77
2021/03/02 09:01:22;;;;;;;47.40;26.83;;;5.90;99.90;;;;;;4175253;28;20041;-77
2021/03/02 09:03:24;;;;;;;38.65;23.85;;;6.10;99.90;;;;;;4178101;28;20033;-76
2021/03/02 09:05:24;;;;;;;39.00;22.67;;;6.40;99.90;;;;;;4179753;28;20071;-76
2021/03/02 09:07:25;;;;;;;37.15;22.67;;;6.60;99.90;;;;;;4164770;28;20033;-77
2021/03/02 09:09:27;;;;;;;36.35;21.90;;;6.70;99.90;;;;;;4191728;28;20032;-77
2021/03/02 09:11:44;;;;;;;35.20;22.83;;;6.90;99.90;;;;;;4178483;28;20045;-77
2021/03/02 09:13:45;;;;;;;37.67;22.55;;;7.00;99.90;;;;;;4162189;28;20465;-77
2021/03/02 09:15:47;;;;;;;34.47;21.38;;;7.10;99.90;;;;;;4162233;28;20038;-76
2021/03/02 09:17:50;;;;;;;34.67;20.77;;;7.30;99.90;;;;;;4179510;28;20614;-76
2021/03/02 09:19:51;;;;;;;30.67;19.33;;;7.40;99.90;;;;;;4162061;28;20037;-76
2021/03/02 09:22:16;;;;;;;31.98;21.25;;;7.60;99.90;;;;;;4179562;28;20120;-76
2021/03/02 09:24:20;;;;;;;29.70;21.30;;;7.70;99.90;;;;;;4179350;28;20538;-77
2021/03/02 09:26:24;;;;;;;31.40;20.17;;;7.90;99.90;;;;;;4178984;28;20099;-76
2021/03/02 09:28:25;;;;;;;27.25;18.80;;;8.00;99.90;;;;;;4169164;28;20110;-76
2021/03/02 09:30:26;;;;;;;25.63;17.45;;;8.20;99.90;;;;;;4162662;28;20037;-76
2021/03/02 09:32:32;;;;;;;24.05;16.75;;;8.30;99.90;;;;;;4178991;28;20037;-77
2021/03/02 09:34:46;;;;;;;27.27;16.92;;;8.40;99.90;;;;;;4178478;28;20033;-76
2021/03/02 09:36:47;;;;;;;;;;;9.40;99.90;;;;;;4179094;28;20048;-76
2021/03/02 09:38:48;;;;;;;23.02;16.13;;;8.80;99.90;;;;;;4184319;28;19972;-76
2021/03/02 09:40:49;;;;;;;25.88;16.60;;;8.90;99.90;;;;;;4169278;28;20041;-77
2021/03/02 09:42:59;;;;;;;23.15;15.85;;;8.90;99.90;;;;;;4178083;28;20417;-76
2021/03/02 09:45:08;;;;;;;24.38;15.60;;;9.10;99.90;;;;;;4179358;28;20041;-76
2021/03/02 09:47:09;;;;;;;20.98;14.65;;;9.30;99.90;;;;;;4160754;28;20053;-76
2021/03/02 09:49:10;;;;;;;22.77;15.20;;;9.40;99.90;;;;;;4172125;28;20045;-76
2021/03/02 09:51:33;;;;;;;22.95;13.45;;;9.50;99.90;;;;;;4178340;28;20044;-77
2021/03/02 09:53:36;;;;;;;18.65;13.02;;;9.70;99.90;;;;;;4180210;28;20410;-77
2021/03/02 09:55:36;;;;;;;15.68;11.73;;;9.80;99.90;;;;;;4161447;28;20029;-77
2021/03/02 09:58:14;;;;;;;18.92;13.18;;;10.10;99.90;;;;;;4175043;28;20511;-77
2021/03/02 10:00:17;;;;;;;21.42;15.15;;;10.70;99.90;;;;;;4170463;28;20041;-72
2021/03/02 10:02:18;;;;;;;17.42;12.23;;;11.30;99.90;;;;;;4172560;28;20026;-75
2021/03/02 10:04:20;;;;;;;17.55;12.60;;;11.60;99.90;;;;;;4169619;28;20029;-74
2021/03/02 10:06:24;;;;;;;18.27;13.45;;;11.70;99.90;;;;;;4178114;28;20412;-74
2021/03/02 10:08:43;;;;;;;15.70;12.98;;;11.80;99.90;;;;;;4193624;28;20051;-75
2021/03/02 10:10:44;;;;;;;16.15;11.80;;;11.90;99.90;;;;;;4151181;28;20037;-75
2021/03/02 10:12:59;;;;;;;20.55;14.52;;;11.90;99.90;;;;;;4175396;28;20484;-74
2021/03/02 10:15:00;;;;;;;17.13;12.80;;;12.30;99.90;;;;;;4178926;28;20396;-75
2021/03/02 10:17:00;;;;;;;20.98;14.32;;;12.60;99.90;;;;;;4178706;28;20037;-75
2021/03/02 10:19:21;;;;;;;19.58;12.68;;;12.70;99.90;;;;;;4193913;28;20037;-75
2021/03/02 10:21:45;;;;;;;22.98;14.48;;;12.80;99.90;;;;;;4176889;28;20526;-75
2021/03/02 10:23:52;;;;;;;16.80;13.50;;;12.90;99.90;;;;;;4176413;28;20040;-74
2021/03/02 10:25:56;;;;;;;22.60;14.82;;;12.90;99.90;;;;;;4173134;28;20056;-75
2021/03/02 10:27:57;;;;;;;19.30;14.70;;;13.20;99.90;;;;;;4171861;28;20037;-75
2021/03/02 10:29:59;;;;;;;21.23;13.95;;;13.40;99.90;;;;;;4171062;28;20061;-75
2021/03/02 10:32:02;;;;;;;18.53;13.33;;;13.40;99.90;;;;;;4176617;28;20080;-75